sensor_id;sensor_type;location;lat;lon;timestamp;P1;durP1;ratioP1;P2;durP2;ratioP2
60308;SDS011;50313;52.894;6.492;2024-03-29T00:01:16;3.40;;;1.00;;
60308;SDS011;50313;52.894;6.492;2024-03-29T00:03:42;6.45;;;0.80;;
60308;SDS011;50313;52.894;6.492;2024-03-29T00:06:09;6.10;;;0.80;;
60308;SDS011;50313;52.894;6.492;2024-03-29T00:08:35;1.73;;;0.80;;
60308;SDS011;50313;52.894;6.492;2024-03-29T00:11:00;5.47;;;0.93;;
60308;SDS011;50313;52.894;6.492;2024-03-29T00:13:27;3.55;;;0.75;;
60308;SDS011;50313;52.894;6.492;2024-03-29T00:15:53;0.95;;;0.60;;
60308;SDS011;50313;52.894;6.492;2024-03-29T00:18:19;0.35;;;0.35;;
60308;SDS011;50313;52.894;6.492;2024-03-29T00:20:45;1.17;;;0.55;;
60308;SDS011;50313;52.894;6.492;2024-03-29T00:23:10;7.90;;;1.00;;
60308;SDS011;50313;52.894;6.492;2024-03-29T00:25:36;0.40;;;0.40;;
60308;SDS011;50313;52.894;6.492;2024-03-29T00:28:02;4.15;;;0.80;;
60308;SDS011;50313;52.894;6.492;2024-03-29T00:30:28;2.65;;;0.93;;
60308;SDS011;50313;52.894;6.492;2024-03-29T00:32:54;0.90;;;0.70;;
60308;SDS011;50313;52.894;6.492;2024-03-29T00:35:20;0.82;;;0.80;;
60308;SDS011;50313;52.894;6.492;2024-03-29T00:37:48;1.05;;;0.60;;
60308;SDS011;50313;52.894;6.492;2024-03-29T00:40:14;2.95;;;1.30;;
60308;SDS011;50313;52.894;6.492;2024-03-29T00:42:41;4.63;;;0.82;;
60308;SDS011;50313;52.894;6.492;2024-03-29T00:45:07;1.17;;;0.52;;
60308;SDS011;50313;52.894;6.492;2024-03-29T00:47:33;1.38;;;0.50;;
60308;SDS011;50313;52.894;6.492;2024-03-29T00:50:00;0.80;;;0.60;;
60308;SDS011;50313;52.894;6.492;2024-03-29T00:52:26;2.97;;;0.90;;
60308;SDS011;50313;52.894;6.492;2024-03-29T00:54:51;0.93;;;0.70;;
60308;SDS011;50313;52.894;6.492;2024-03-29T00:57:18;6.00;;;0.70;;
60308;SDS011;50313;52.894;6.492;2024-03-29T00:59:44;4.72;;;1.08;;
60308;SDS011;50313;52.894;6.492;2024-03-29T01:02:11;2.30;;;0.90;;
60308;SDS011;50313;52.894;6.492;2024-03-29T01:04:36;2.72;;;0.60;;
60308;SDS011;50313;52.894;6.492;2024-03-29T01:07:03;4.13;;;0.75;;
60308;SDS011;50313;52.894;6.492;2024-03-29T01:09:29;2.25;;;0.93;;
60308;SDS011;50313;52.894;6.492;2024-03-29T01:11:55;1.15;;;0.57;;
60308;SDS011;50313;52.894;6.492;2024-03-29T01:14:21;6.80;;;0.80;;
60308;SDS011;50313;52.894;6.492;2024-03-29T01:16:47;2.60;;;0.90;;
60308;SDS011;50313;52.894;6.492;2024-03-29T01:19:12;1.00;;;0.77;;
60308;SDS011;50313;52.894;6.492;2024-03-29T01:21:38;4.65;;;0.80;;
60308;SDS011;50313;52.894;6.492;2024-03-29T01:24:04;1.23;;;0.85;;
60308;SDS011;50313;52.894;6.492;2024-03-29T01:26:30;1.85;;;0.65;;
60308;SDS011;50313;52.894;6.492;2024-03-29T01:28:56;0.40;;;0.40;;
60308;SDS011;50313;52.894;6.492;2024-03-29T01:31:22;0.80;;;0.52;;
60308;SDS011;50313;52.894;6.492;2024-03-29T01:33:49;0.65;;;0.60;;
60308;SDS011;50313;52.894;6.492;2024-03-29T01:36:15;1.70;;;0.85;;
60308;SDS011;50313;52.894;6.492;2024-03-29T01:38:41;1.77;;;0.68;;
60308;SDS011;50313;52.894;6.492;2024-03-29T01:41:07;5.25;;;0.60;;
60308;SDS011;50313;52.894;6.492;2024-03-29T01:43:33;3.58;;;0.50;;
60308;SDS011;50313;52.894;6.492;2024-03-29T01:45:58;0.47;;;0.47;;
60308;SDS011;50313;52.894;6.492;2024-03-29T01:48:25;1.10;;;0.55;;
60308;SDS011;50313;52.894;6.492;2024-03-29T01:50:56;3.70;;;1.00;;
60308;SDS011;50313;52.894;6.492;2024-03-29T01:53:22;4.47;;;0.65;;
60308;SDS011;50313;52.894;6.492;2024-03-29T01:55:49;0.50;;;0.50;;
60308;SDS011;50313;52.894;6.492;2024-03-29T01:58:16;1.98;;;0.75;;
60308;SDS011;50313;52.894;6.492;2024-03-29T02:00:51;9.25;;;0.85;;
60308;SDS011;50313;52.894;6.492;2024-03-29T02:03:19;0.40;;;0.40;;
60308;SDS011;50313;52.894;6.492;2024-03-29T02:05:46;1.70;;;0.95;;
60308;SDS011;50313;52.894;6.492;2024-03-29T02:08:13;1.27;;;0.43;;
60308;SDS011;50313;52.894;6.492;2024-03-29T02:10:40;3.97;;;0.57;;
60308;SDS011;50313;52.894;6.492;2024-03-29T02:13:08;2.95;;;0.77;;
60308;SDS011;50313;52.894;6.492;2024-03-29T02:15:34;2.60;;;0.65;;
60308;SDS011;50313;52.894;6.492;2024-03-29T02:18:00;1.60;;;0.60;;
60308;SDS011;50313;52.894;6.492;2024-03-29T02:20:25;3.83;;;1.10;;
60308;SDS011;50313;52.894;6.492;2024-03-29T02:22:55;1.20;;;0.70;;
60308;SDS011;50313;52.894;6.492;2024-03-29T02:25:31;2.33;;;0.70;;
60308;SDS011;50313;52.894;6.492;2024-03-29T02:27:57;0.90;;;0.50;;
60308;SDS011;50313;52.894;6.492;2024-03-29T02:30:24;1.77;;;0.80;;
60308;SDS011;50313;52.894;6.492;2024-03-29T02:32:50;3.38;;;0.45;;
60308;SDS011;50313;52.894;6.492;2024-03-29T02:35:16;6.22;;;1.05;;
60308;SDS011;50313;52.894;6.492;2024-03-29T02:37:42;0.60;;;0.60;;
60308;SDS011;50313;52.894;6.492;2024-03-29T02:40:07;2.85;;;1.30;;
60308;SDS011;50313;52.894;6.492;2024-03-29T02:42:34;1.88;;;0.50;;
60308;SDS011;50313;52.894;6.492;2024-03-29T02:45:01;0.60;;;0.60;;
60308;SDS011;50313;52.894;6.492;2024-03-29T02:47:27;2.58;;;0.50;;
60308;SDS011;50313;52.894;6.492;2024-03-29T02:49:53;1.85;;;0.70;;
60308;SDS011;50313;52.894;6.492;2024-03-29T02:52:19;1.23;;;0.50;;
60308;SDS011;50313;52.894;6.492;2024-03-29T02:54:45;4.40;;;0.90;;
60308;SDS011;50313;52.894;6.492;2024-03-29T02:57:11;1.85;;;0.70;;
60308;SDS011;50313;52.894;6.492;2024-03-29T02:59:39;2.95;;;0.70;;
60308;SDS011;50313;52.894;6.492;2024-03-29T03:02:05;4.45;;;0.73;;
60308;SDS011;50313;52.894;6.492;2024-03-29T03:04:31;1.05;;;0.77;;
60308;SDS011;50313;52.894;6.492;2024-03-29T03:06:57;0.60;;;0.60;;
60308;SDS011;50313;52.894;6.492;2024-03-29T03:09:42;1.20;;;0.40;;
60308;SDS011;50313;52.894;6.492;2024-03-29T03:12:28;2.28;;;0.93;;
60308;SDS011;50313;52.894;6.492;2024-03-29T03:14:54;0.60;;;0.60;;
60308;SDS011;50313;52.894;6.492;2024-03-29T03:17:20;3.00;;;0.50;;
60308;SDS011;50313;52.894;6.492;2024-03-29T03:19:46;5.82;;;0.70;;
60308;SDS011;50313;52.894;6.492;2024-03-29T03:22:12;1.35;;;0.60;;
60308;SDS011;50313;52.894;6.492;2024-03-29T03:24:38;0.82;;;0.43;;
60308;SDS011;50313;52.894;6.492;2024-03-29T03:27:04;1.73;;;0.30;;
60308;SDS011;50313;52.894;6.492;2024-03-29T03:29:30;10.23;;;0.85;;
60308;SDS011;50313;52.894;6.492;2024-03-29T03:31:55;3.22;;;0.85;;
60308;SDS011;50313;52.894;6.492;2024-03-29T03:34:21;0.60;;;0.60;;
60308;SDS011;50313;52.894;6.492;2024-03-29T03:36:47;0.82;;;0.68;;
60308;SDS011;50313;52.894;6.492;2024-03-29T03:39:13;0.55;;;0.45;;
60308;SDS011;50313;52.894;6.492;2024-03-29T03:41:38;0.55;;;0.55;;
60308;SDS011;50313;52.894;6.492;2024-03-29T03:44:05;0.32;;;0.32;;
60308;SDS011;50313;52.894;6.492;2024-03-29T03:46:30;4.05;;;0.93;;
60308;SDS011;50313;52.894;6.492;2024-03-29T03:48:56;1.85;;;0.80;;
60308;SDS011;50313;52.894;6.492;2024-03-29T03:51:22;3.42;;;0.73;;
60308;SDS011;50313;52.894;6.492;2024-03-29T03:53:48;3.72;;;0.52;;
60308;SDS011;50313;52.894;6.492;2024-03-29T03:56:14;3.20;;;0.77;;
60308;SDS011;50313;52.894;6.492;2024-03-29T03:58:39;3.70;;;0.70;;
60308;SDS011;50313;52.894;6.492;2024-03-29T04:01:05;5.25;;;0.73;;
60308;SDS011;50313;52.894;6.492;2024-03-29T04:03:31;2.28;;;0.80;;
60308;SDS011;50313;52.894;6.492;2024-03-29T04:05:57;6.32;;;1.10;;
60308;SDS011;50313;52.894;6.492;2024-03-29T04:08:23;0.98;;;0.47;;
60308;SDS011;50313;52.894;6.492;2024-03-29T04:10:49;0.55;;;0.55;;
60308;SDS011;50313;52.894;6.492;2024-03-29T04:13:14;3.20;;;0.55;;
60308;SDS011;50313;52.894;6.492;2024-03-29T04:15:40;0.40;;;0.40;;
60308;SDS011;50313;52.894;6.492;2024-03-29T04:18:06;1.05;;;0.55;;
60308;SDS011;50313;52.894;6.492;2024-03-29T04:20:32;0.60;;;0.60;;
60308;SDS011;50313;52.894;6.492;2024-03-29T04:22:57;1.52;;;0.75;;
60308;SDS011;50313;52.894;6.492;2024-03-29T04:25:23;1.85;;;0.65;;
60308;SDS011;50313;52.894;6.492;2024-03-29T04:27:49;2.33;;;0.50;;
60308;SDS011;50313;52.894;6.492;2024-03-29T04:30:15;1.35;;;1.20;;
60308;SDS011;50313;52.894;6.492;2024-03-29T04:32:41;0.60;;;0.60;;
60308;SDS011;50313;52.894;6.492;2024-03-29T04:35:06;3.90;;;0.80;;
60308;SDS011;50313;52.894;6.492;2024-03-29T04:37:33;1.90;;;0.55;;
60308;SDS011;50313;52.894;6.492;2024-03-29T04:39:58;3.35;;;0.70;;
60308;SDS011;50313;52.894;6.492;2024-03-29T04:42:24;3.28;;;0.75;;
60308;SDS011;50313;52.894;6.492;2024-03-29T04:44:50;4.65;;;0.82;;
60308;SDS011;50313;52.894;6.492;2024-03-29T04:47:16;2.20;;;0.95;;
60308;SDS011;50313;52.894;6.492;2024-03-29T04:49:42;1.13;;;0.50;;
60308;SDS011;50313;52.894;6.492;2024-03-29T04:52:08;1.58;;;0.50;;
60308;SDS011;50313;52.894;6.492;2024-03-29T04:54:34;2.55;;;0.95;;
60308;SDS011;50313;52.894;6.492;2024-03-29T04:57:00;3.45;;;0.77;;
60308;SDS011;50313;52.894;6.492;2024-03-29T04:59:27;1.70;;;0.73;;
60308;SDS011;50313;52.894;6.492;2024-03-29T05:01:54;1.98;;;0.45;;
60308;SDS011;50313;52.894;6.492;2024-03-29T05:04:22;1.65;;;0.47;;
60308;SDS011;50313;52.894;6.492;2024-03-29T05:06:52;1.40;;;0.40;;
60308;SDS011;50313;52.894;6.492;2024-03-29T05:09:18;6.78;;;0.57;;
60308;SDS011;50313;52.894;6.492;2024-03-29T05:11:44;0.32;;;0.32;;
60308;SDS011;50313;52.894;6.492;2024-03-29T05:14:12;7.47;;;0.93;;
60308;SDS011;50313;52.894;6.492;2024-03-29T05:16:40;11.80;;;0.88;;
60308;SDS011;50313;52.894;6.492;2024-03-29T05:19:06;1.02;;;0.85;;
60308;SDS011;50313;52.894;6.492;2024-03-29T05:21:32;1.95;;;0.60;;
60308;SDS011;50313;52.894;6.492;2024-03-29T05:23:57;1.17;;;0.45;;
60308;SDS011;50313;52.894;6.492;2024-03-29T05:26:23;4.43;;;0.90;;
60308;SDS011;50313;52.894;6.492;2024-03-29T05:28:49;3.05;;;0.60;;
60308;SDS011;50313;52.894;6.492;2024-03-29T05:31:15;6.75;;;0.75;;
60308;SDS011;50313;52.894;6.492;2024-03-29T05:33:41;1.10;;;0.90;;
60308;SDS011;50313;52.894;6.492;2024-03-29T05:36:07;0.35;;;0.35;;
60308;SDS011;50313;52.894;6.492;2024-03-29T05:38:36;3.00;;;0.60;;
60308;SDS011;50313;52.894;6.492;2024-03-29T05:41:02;0.77;;;0.77;;
60308;SDS011;50313;52.894;6.492;2024-03-29T05:43:29;3.30;;;0.68;;
60308;SDS011;50313;52.894;6.492;2024-03-29T05:45:54;0.40;;;0.40;;
60308;SDS011;50313;52.894;6.492;2024-03-29T05:48:20;2.05;;;0.60;;
60308;SDS011;50313;52.894;6.492;2024-03-29T05:50:46;1.30;;;0.50;;
60308;SDS011;50313;52.894;6.492;2024-03-29T05:53:12;1.40;;;0.75;;
60308;SDS011;50313;52.894;6.492;2024-03-29T05:55:38;2.53;;;0.55;;
60308;SDS011;50313;52.894;6.492;2024-03-29T05:58:03;0.45;;;0.45;;
60308;SDS011;50313;52.894;6.492;2024-03-29T06:00:31;2.58;;;0.68;;
60308;SDS011;50313;52.894;6.492;2024-03-29T06:03:01;0.95;;;0.50;;
60308;SDS011;50313;52.894;6.492;2024-03-29T06:05:30;4.68;;;0.60;;
60308;SDS011;50313;52.894;6.492;2024-03-29T06:07:56;0.75;;;0.47;;
60308;SDS011;50313;52.894;6.492;2024-03-29T06:10:22;0.47;;;0.47;;
60308;SDS011;50313;52.894;6.492;2024-03-29T06:12:48;0.40;;;0.40;;
60308;SDS011;50313;52.894;6.492;2024-03-29T06:15:13;3.97;;;0.85;;
60308;SDS011;50313;52.894;6.492;2024-03-29T06:17:58;1.55;;;0.75;;
60308;SDS011;50313;52.894;6.492;2024-03-29T06:20:24;0.30;;;0.30;;
60308;SDS011;50313;52.894;6.492;2024-03-29T06:22:50;4.28;;;1.20;;
60308;SDS011;50313;52.894;6.492;2024-03-29T06:25:15;2.53;;;0.90;;
60308;SDS011;50313;52.894;6.492;2024-03-29T06:27:42;0.30;;;0.30;;
60308;SDS011;50313;52.894;6.492;2024-03-29T06:30:14;1.45;;;0.50;;
60308;SDS011;50313;52.894;6.492;2024-03-29T06:32:44;3.78;;;0.50;;
60308;SDS011;50313;52.894;6.492;2024-03-29T06:35:11;0.63;;;0.50;;
60308;SDS011;50313;52.894;6.492;2024-03-29T06:37:37;0.68;;;0.40;;
60308;SDS011;50313;52.894;6.492;2024-03-29T06:40:04;2.30;;;0.65;;
60308;SDS011;50313;52.894;6.492;2024-03-29T06:42:31;1.85;;;0.70;;
60308;SDS011;50313;52.894;6.492;2024-03-29T06:44:57;1.90;;;0.30;;
60308;SDS011;50313;52.894;6.492;2024-03-29T06:47:24;0.40;;;0.40;;
60308;SDS011;50313;52.894;6.492;2024-03-29T06:49:50;0.45;;;0.40;;
60308;SDS011;50313;52.894;6.492;2024-03-29T06:52:16;1.00;;;0.52;;
60308;SDS011;50313;52.894;6.492;2024-03-29T06:54:42;1.83;;;0.47;;
60308;SDS011;50313;52.894;6.492;2024-03-29T06:57:08;0.45;;;0.40;;
60308;SDS011;50313;52.894;6.492;2024-03-29T06:59:35;4.38;;;0.45;;
60308;SDS011;50313;52.894;6.492;2024-03-29T07:02:01;0.57;;;0.52;;
60308;SDS011;50313;52.894;6.492;2024-03-29T07:04:27;1.50;;;0.50;;
60308;SDS011;50313;52.894;6.492;2024-03-29T07:06:53;2.35;;;0.60;;
60308;SDS011;50313;52.894;6.492;2024-03-29T07:09:19;0.50;;;0.50;;
60308;SDS011;50313;52.894;6.492;2024-03-29T07:11:47;0.55;;;0.50;;
60308;SDS011;50313;52.894;6.492;2024-03-29T07:14:16;0.77;;;0.40;;
60308;SDS011;50313;52.894;6.492;2024-03-29T07:16:43;2.85;;;0.63;;
60308;SDS011;50313;52.894;6.492;2024-03-29T07:19:09;0.57;;;0.43;;
60308;SDS011;50313;52.894;6.492;2024-03-29T07:21:38;0.40;;;0.40;;
60308;SDS011;50313;52.894;6.492;2024-03-29T07:24:05;0.50;;;0.43;;
60308;SDS011;50313;52.894;6.492;2024-03-29T07:26:31;2.88;;;0.50;;
60308;SDS011;50313;52.894;6.492;2024-03-29T07:28:57;0.77;;;0.50;;
60308;SDS011;50313;52.894;6.492;2024-03-29T07:31:23;1.80;;;0.70;;
60308;SDS011;50313;52.894;6.492;2024-03-29T07:33:49;1.20;;;0.65;;
60308;SDS011;50313;52.894;6.492;2024-03-29T07:36:15;0.70;;;0.70;;
60308;SDS011;50313;52.894;6.492;2024-03-29T07:38:42;0.88;;;0.63;;
60308;SDS011;50313;52.894;6.492;2024-03-29T07:41:09;2.03;;;0.60;;
60308;SDS011;50313;52.894;6.492;2024-03-29T07:43:54;0.40;;;0.40;;
60308;SDS011;50313;52.894;6.492;2024-03-29T07:46:29;4.15;;;0.93;;
60308;SDS011;50313;52.894;6.492;2024-03-29T07:48:59;0.52;;;0.38;;
60308;SDS011;50313;52.894;6.492;2024-03-29T07:51:25;2.95;;;0.80;;
60308;SDS011;50313;52.894;6.492;2024-03-29T07:53:51;0.40;;;0.40;;
60308;SDS011;50313;52.894;6.492;2024-03-29T07:56:17;2.38;;;0.50;;
60308;SDS011;50313;52.894;6.492;2024-03-29T07:58:43;0.43;;;0.43;;
60308;SDS011;50313;52.894;6.492;2024-03-29T08:01:09;0.50;;;0.50;;
60308;SDS011;50313;52.894;6.492;2024-03-29T08:03:35;2.55;;;0.57;;
60308;SDS011;50313;52.894;6.492;2024-03-29T08:06:02;0.88;;;0.55;;
60308;SDS011;50313;52.894;6.492;2024-03-29T08:08:31;1.77;;;0.75;;
60308;SDS011;50313;52.894;6.492;2024-03-29T08:10:58;0.85;;;0.57;;
60308;SDS011;50313;52.894;6.492;2024-03-29T08:13:25;2.78;;;1.30;;
60308;SDS011;50313;52.894;6.492;2024-03-29T08:15:58;0.90;;;0.80;;
60308;SDS011;50313;52.894;6.492;2024-03-29T08:20:54;0.50;;;0.50;;
60308;SDS011;50313;52.894;6.492;2024-03-29T08:23:20;1.02;;;0.60;;
60308;SDS011;50313;52.894;6.492;2024-03-29T08:25:50;0.57;;;0.50;;
60308;SDS011;50313;52.894;6.492;2024-03-29T08:28:19;0.50;;;0.50;;
60308;SDS011;50313;52.894;6.492;2024-03-29T08:30:45;5.88;;;0.70;;
60308;SDS011;50313;52.894;6.492;2024-03-29T08:33:11;2.08;;;0.63;;
60308;SDS011;50313;52.894;6.492;2024-03-29T08:35:37;3.33;;;0.60;;
60308;SDS011;50313;52.894;6.492;2024-03-29T08:38:08;1.60;;;1.02;;
60308;SDS011;50313;52.894;6.492;2024-03-29T08:40:34;2.95;;;0.80;;
60308;SDS011;50313;52.894;6.492;2024-03-29T08:43:03;1.17;;;0.77;;
60308;SDS011;50313;52.894;6.492;2024-03-29T08:45:29;1.02;;;0.90;;
60308;SDS011;50313;52.894;6.492;2024-03-29T08:47:55;0.60;;;0.60;;
60308;SDS011;50313;52.894;6.492;2024-03-29T08:50:21;0.70;;;0.70;;
60308;SDS011;50313;52.894;6.492;2024-03-29T08:52:47;1.85;;;0.70;;
60308;SDS011;50313;52.894;6.492;2024-03-29T08:55:13;0.88;;;0.70;;
60308;SDS011;50313;52.894;6.492;2024-03-29T08:57:39;1.55;;;0.77;;
60308;SDS011;50313;52.894;6.492;2024-03-29T09:00:05;2.53;;;1.10;;
60308;SDS011;50313;52.894;6.492;2024-03-29T09:02:31;0.55;;;0.55;;
60308;SDS011;50313;52.894;6.492;2024-03-29T09:04:57;0.80;;;0.60;;
60308;SDS011;50313;52.894;6.492;2024-03-29T09:07:23;0.70;;;0.68;;
60308;SDS011;50313;52.894;6.492;2024-03-29T09:09:49;1.67;;;1.17;;
60308;SDS011;50313;52.894;6.492;2024-03-29T09:12:15;0.63;;;0.63;;
60308;SDS011;50313;52.894;6.492;2024-03-29T09:14:44;0.68;;;0.68;;
60308;SDS011;50313;52.894;6.492;2024-03-29T09:17:10;1.23;;;0.80;;
60308;SDS011;50313;52.894;6.492;2024-03-29T09:19:36;0.68;;;0.68;;
60308;SDS011;50313;52.894;6.492;2024-03-29T09:22:03;1.42;;;0.90;;
60308;SDS011;50313;52.894;6.492;2024-03-29T09:24:30;0.50;;;0.50;;
60308;SDS011;50313;52.894;6.492;2024-03-29T09:26:57;1.15;;;0.63;;
60308;SDS011;50313;52.894;6.492;2024-03-29T09:29:22;0.88;;;0.88;;
60308;SDS011;50313;52.894;6.492;2024-03-29T09:31:48;0.40;;;0.40;;
60308;SDS011;50313;52.894;6.492;2024-03-29T09:34:14;1.17;;;0.70;;
60308;SDS011;50313;52.894;6.492;2024-03-29T09:36:40;0.50;;;0.50;;
60308;SDS011;50313;52.894;6.492;2024-03-29T09:39:06;0.50;;;0.50;;
60308;SDS011;50313;52.894;6.492;2024-03-29T09:41:34;3.20;;;0.45;;
60308;SDS011;50313;52.894;6.492;2024-03-29T09:44:03;0.70;;;0.70;;
60308;SDS011;50313;52.894;6.492;2024-03-29T09:46:31;1.27;;;0.50;;
60308;SDS011;50313;52.894;6.492;2024-03-29T09:48:58;1.70;;;0.70;;
60308;SDS011;50313;52.894;6.492;2024-03-29T09:51:27;1.65;;;0.63;;
60308;SDS011;50313;52.894;6.492;2024-03-29T09:53:54;0.70;;;0.70;;
60308;SDS011;50313;52.894;6.492;2024-03-29T09:56:22;1.02;;;0.90;;
60308;SDS011;50313;52.894;6.492;2024-03-29T09:58:50;0.82;;;0.82;;
60308;SDS011;50313;52.894;6.492;2024-03-29T10:01:16;1.10;;;1.00;;
60308;SDS011;50313;52.894;6.492;2024-03-29T10:03:42;2.25;;;1.15;;
60308;SDS011;50313;52.894;6.492;2024-03-29T10:06:13;1.10;;;1.00;;
60308;SDS011;50313;52.894;6.492;2024-03-29T10:08:40;1.00;;;0.70;;
60308;SDS011;50313;52.894;6.492;2024-03-29T10:11:06;0.75;;;0.75;;
60308;SDS011;50313;52.894;6.492;2024-03-29T10:13:32;1.52;;;0.65;;
60308;SDS011;50313;52.894;6.492;2024-03-29T10:15:59;0.73;;;0.73;;
60308;SDS011;50313;52.894;6.492;2024-03-29T10:18:28;8.80;;;0.98;;
60308;SDS011;50313;52.894;6.492;2024-03-29T10:21:02;1.75;;;0.77;;
60308;SDS011;50313;52.894;6.492;2024-03-29T10:25:55;2.17;;;0.73;;
60308;SDS011;50313;52.894;6.492;2024-03-29T10:28:20;1.20;;;0.65;;
60308;SDS011;50313;52.894;6.492;2024-03-29T10:30:47;9.23;;;0.80;;
60308;SDS011;50313;52.894;6.492;2024-03-29T10:33:14;0.52;;;0.45;;
60308;SDS011;50313;52.894;6.492;2024-03-29T10:35:43;1.00;;;0.45;;
60308;SDS011;50313;52.894;6.492;2024-03-29T10:38:09;2.17;;;0.85;;
60308;SDS011;50313;52.894;6.492;2024-03-29T10:40:39;0.80;;;0.50;;
60308;SDS011;50313;52.894;6.492;2024-03-29T10:43:09;0.50;;;0.50;;
60308;SDS011;50313;52.894;6.492;2024-03-29T10:45:39;0.98;;;0.70;;
60308;SDS011;50313;52.894;6.492;2024-03-29T10:48:05;4.72;;;1.00;;
60308;SDS011;50313;52.894;6.492;2024-03-29T10:50:37;1.85;;;0.95;;
60308;SDS011;50313;52.894;6.492;2024-03-29T10:53:06;1.10;;;0.68;;
60308;SDS011;50313;52.894;6.492;2024-03-29T10:55:36;0.50;;;0.50;;
60308;SDS011;50313;52.894;6.492;2024-03-29T10:58:04;1.92;;;1.08;;
60308;SDS011;50313;52.894;6.492;2024-03-29T11:00:34;2.20;;;0.80;;
60308;SDS011;50313;52.894;6.492;2024-03-29T11:05:57;2.60;;;1.30;;
60308;SDS011;50313;52.894;6.492;2024-03-29T11:08:31;3.00;;;1.50;;
60308;SDS011;50313;52.894;6.492;2024-03-29T11:11:00;4.15;;;1.75;;
60308;SDS011;50313;52.894;6.492;2024-03-29T11:17:00;2.42;;;1.70;;
60308;SDS011;50313;52.894;6.492;2024-03-29T11:19:26;2.78;;;2.17;;
60308;SDS011;50313;52.894;6.492;2024-03-29T11:21:52;1.63;;;1.50;;
60308;SDS011;50313;52.894;6.492;2024-03-29T11:24:19;2.47;;;1.88;;
60308;SDS011;50313;52.894;6.492;2024-03-29T11:26:47;5.28;;;2.00;;
60308;SDS011;50313;52.894;6.492;2024-03-29T11:29:18;3.67;;;2.47;;
60308;SDS011;50313;52.894;6.492;2024-03-29T11:34:19;2.20;;;1.63;;
60308;SDS011;50313;52.894;6.492;2024-03-29T11:36:45;3.22;;;2.55;;
60308;SDS011;50313;52.894;6.492;2024-03-29T11:39:21;3.58;;;2.63;;
60308;SDS011;50313;52.894;6.492;2024-03-29T11:41:48;3.28;;;2.33;;
60308;SDS011;50313;52.894;6.492;2024-03-29T11:44:15;4.10;;;2.42;;
60308;SDS011;50313;52.894;6.492;2024-03-29T11:46:42;3.00;;;2.10;;
60308;SDS011;50313;52.894;6.492;2024-03-29T11:49:12;2.55;;;2.33;;
60308;SDS011;50313;52.894;6.492;2024-03-29T11:51:38;2.85;;;2.47;;
60308;SDS011;50313;52.894;6.492;2024-03-29T11:54:04;8.15;;;2.60;;
60308;SDS011;50313;52.894;6.492;2024-03-29T11:56:30;2.33;;;2.13;;
60308;SDS011;50313;52.894;6.492;2024-03-29T11:58:55;2.05;;;1.88;;
60308;SDS011;50313;52.894;6.492;2024-03-29T12:01:27;3.03;;;2.13;;
60308;SDS011;50313;52.894;6.492;2024-03-29T12:03:57;1.70;;;1.60;;
60308;SDS011;50313;52.894;6.492;2024-03-29T12:06:22;5.07;;;2.17;;
60308;SDS011;50313;52.894;6.492;2024-03-29T12:08:48;3.17;;;1.85;;
60308;SDS011;50313;52.894;6.492;2024-03-29T12:11:15;4.00;;;1.38;;
60308;SDS011;50313;52.894;6.492;2024-03-29T12:13:41;3.88;;;2.28;;
60308;SDS011;50313;52.894;6.492;2024-03-29T12:16:10;4.22;;;1.77;;
60308;SDS011;50313;52.894;6.492;2024-03-29T12:18:35;2.85;;;1.90;;
60308;SDS011;50313;52.894;6.492;2024-03-29T12:21:01;2.22;;;1.45;;
60308;SDS011;50313;52.894;6.492;2024-03-29T12:23:28;2.45;;;1.27;;
60308;SDS011;50313;52.894;6.492;2024-03-29T12:25:55;2.35;;;1.30;;
60308;SDS011;50313;52.894;6.492;2024-03-29T12:28:23;1.10;;;1.00;;
60308;SDS011;50313;52.894;6.492;2024-03-29T12:30:50;0.98;;;0.98;;
60308;SDS011;50313;52.894;6.492;2024-03-29T12:33:17;1.63;;;0.85;;
60308;SDS011;50313;52.894;6.492;2024-03-29T12:35:51;1.55;;;0.93;;
60308;SDS011;50313;52.894;6.492;2024-03-29T12:38:22;3.80;;;0.80;;
60308;SDS011;50313;52.894;6.492;2024-03-29T12:40:49;2.05;;;1.00;;
60308;SDS011;50313;52.894;6.492;2024-03-29T12:43:22;2.03;;;0.88;;
60308;SDS011;50313;52.894;6.492;2024-03-29T12:45:49;0.63;;;0.63;;
60308;SDS011;50313;52.894;6.492;2024-03-29T12:48:20;0.80;;;0.60;;
60308;SDS011;50313;52.894;6.492;2024-03-29T12:50:48;1.08;;;0.68;;
60308;SDS011;50313;52.894;6.492;2024-03-29T12:53:15;0.75;;;0.75;;
60308;SDS011;50313;52.894;6.492;2024-03-29T12:55:42;1.17;;;0.60;;
60308;SDS011;50313;52.894;6.492;2024-03-29T12:58:11;0.73;;;0.63;;
60308;SDS011;50313;52.894;6.492;2024-03-29T13:00:38;1.02;;;0.40;;
60308;SDS011;50313;52.894;6.492;2024-03-29T13:03:05;1.85;;;0.68;;
60308;SDS011;50313;52.894;6.492;2024-03-29T13:05:32;0.65;;;0.60;;
60308;SDS011;50313;52.894;6.492;2024-03-29T13:08:04;1.08;;;0.70;;
60308;SDS011;50313;52.894;6.492;2024-03-29T13:10:32;4.60;;;0.70;;
60308;SDS011;50313;52.894;6.492;2024-03-29T13:12:58;0.52;;;0.50;;
60308;SDS011;50313;52.894;6.492;2024-03-29T13:15:24;0.50;;;0.50;;
60308;SDS011;50313;52.894;6.492;2024-03-29T13:17:52;1.98;;;0.63;;
60308;SDS011;50313;52.894;6.492;2024-03-29T13:20:19;1.65;;;0.40;;
60308;SDS011;50313;52.894;6.492;2024-03-29T13:22:47;1.30;;;0.68;;
60308;SDS011;50313;52.894;6.492;2024-03-29T13:25:15;3.17;;;0.70;;
60308;SDS011;50313;52.894;6.492;2024-03-29T13:27:42;0.65;;;0.57;;
60308;SDS011;50313;52.894;6.492;2024-03-29T13:30:10;0.55;;;0.40;;
60308;SDS011;50313;52.894;6.492;2024-03-29T13:32:41;1.35;;;0.70;;
60308;SDS011;50313;52.894;6.492;2024-03-29T13:35:09;1.30;;;0.50;;
60308;SDS011;50313;52.894;6.492;2024-03-29T13:37:39;0.57;;;0.40;;
60308;SDS011;50313;52.894;6.492;2024-03-29T13:40:11;1.08;;;0.60;;
60308;SDS011;50313;52.894;6.492;2024-03-29T13:42:37;1.50;;;0.70;;
60308;SDS011;50313;52.894;6.492;2024-03-29T13:45:05;2.45;;;0.68;;
60308;SDS011;50313;52.894;6.492;2024-03-29T13:47:35;3.08;;;0.60;;
60308;SDS011;50313;52.894;6.492;2024-03-29T13:50:05;0.70;;;0.70;;
60308;SDS011;50313;52.894;6.492;2024-03-29T13:52:31;2.25;;;0.60;;
60308;SDS011;50313;52.894;6.492;2024-03-29T13:55:17;1.15;;;0.85;;
60308;SDS011;50313;52.894;6.492;2024-03-29T13:57:43;1.63;;;0.73;;
60308;SDS011;50313;52.894;6.492;2024-03-29T14:00:09;2.50;;;0.93;;
60308;SDS011;50313;52.894;6.492;2024-03-29T14:02:39;1.00;;;0.90;;
60308;SDS011;50313;52.894;6.492;2024-03-29T14:05:05;1.95;;;1.00;;
60308;SDS011;50313;52.894;6.492;2024-03-29T14:07:31;0.80;;;0.75;;
60308;SDS011;50313;52.894;6.492;2024-03-29T14:09:57;0.70;;;0.70;;
60308;SDS011;50313;52.894;6.492;2024-03-29T14:12:23;1.27;;;0.73;;
60308;SDS011;50313;52.894;6.492;2024-03-29T14:14:51;0.82;;;0.82;;
60308;SDS011;50313;52.894;6.492;2024-03-29T14:17:18;2.03;;;1.13;;
60308;SDS011;50313;52.894;6.492;2024-03-29T14:19:44;0.47;;;0.47;;
60308;SDS011;50313;52.894;6.492;2024-03-29T14:22:10;1.65;;;0.55;;
60308;SDS011;50313;52.894;6.492;2024-03-29T14:24:38;1.50;;;0.80;;
60308;SDS011;50313;52.894;6.492;2024-03-29T14:27:05;0.65;;;0.63;;
60308;SDS011;50313;52.894;6.492;2024-03-29T14:29:31;0.55;;;0.55;;
60308;SDS011;50313;52.894;6.492;2024-03-29T14:31:58;0.90;;;0.80;;
60308;SDS011;50313;52.894;6.492;2024-03-29T14:34:24;0.85;;;0.52;;
60308;SDS011;50313;52.894;6.492;2024-03-29T14:36:50;0.80;;;0.75;;
60308;SDS011;50313;52.894;6.492;2024-03-29T14:39:17;0.90;;;0.55;;
60308;SDS011;50313;52.894;6.492;2024-03-29T14:41:49;1.30;;;1.00;;
60308;SDS011;50313;52.894;6.492;2024-03-29T14:44:16;2.30;;;0.60;;
60308;SDS011;50313;52.894;6.492;2024-03-29T14:46:43;2.03;;;0.60;;
60308;SDS011;50313;52.894;6.492;2024-03-29T14:49:12;0.80;;;0.70;;
60308;SDS011;50313;52.894;6.492;2024-03-29T14:51:39;0.77;;;0.77;;
60308;SDS011;50313;52.894;6.492;2024-03-29T14:54:05;0.65;;;0.65;;
60308;SDS011;50313;52.894;6.492;2024-03-29T14:56:32;1.48;;;0.60;;
60308;SDS011;50313;52.894;6.492;2024-03-29T14:59:05;1.23;;;0.68;;
60308;SDS011;50313;52.894;6.492;2024-03-29T15:01:34;0.73;;;0.70;;